»·PEaware :: N3861Q KSBA-KBFL

N3861Q :: KSBA-KBFL

FLIGHT INFORMATION

Flight Status: Arrived
Operator: Privately registered:
United States
More flights under this callsign
Pilot: Rod M. (882)
Aircraft: PIPER PA-31/31P NAVAJO CHIEFTAIN
(PA31)
More flights by this aircraft type
Origin: KSBA Santa Barbara Mun
United States
Destination: KBFL Meadows
United States
More flights between these airports :: More routes between these airports
Route: GVO V12 RZS V183 EHF
File this flight plan on PilotEdge
Remarks:
Altitude:
(Current/Filed)
9,000ft
Speed:
(Current/Filed)
180kts
Departed: 04-Oct-17 08:32 PM
Arrived: 04-Oct-17 09:11 PM
Distance/Time
Traveled:
72nm/0:39
Distance/Time
To Go:
Arrived

Flight Plot

Page will automatically refresh every two minutes.

Flight plan parsing failed; only flown route is shown


Map Options




Map Legend


Flown Route
Filed Route
Departure Airport
Arrival Airport
Navaid (VOR, NDB)
Fix

Horizontal Profiles

Position Reports

Time Latitude Longitude Heading Altitude Ground
Speed
04-Oct-17 20:21 34.422655 -119.835582 340 17ft 0kts
04-Oct-17 20:22 34.422655 -119.835582 340 17ft 0kts
04-Oct-17 20:23 34.422655 -119.835582 340 17ft 0kts
04-Oct-17 20:24 34.422655 -119.835582 340 17ft 0kts
04-Oct-17 20:25 34.422655 -119.835582 340 17ft 0kts
04-Oct-17 20:26 34.422655 -119.835582 340 17ft 0kts
04-Oct-17 20:27 34.422655 -119.835582 340 17ft 0kts
04-Oct-17 20:28 34.422655 -119.835582 340 17ft 0kts
04-Oct-17 20:29 34.422655 -119.835582 340 17ft 0kts
04-Oct-17 20:30 34.423887 -119.837473 350 17ft 14kts
04-Oct-17 20:31 34.426733 -119.837494 87 17ft 13kts
04-Oct-17 20:32 34.427028 -119.834623 357 17ft 0kts
04-Oct-17 20:33 34.427028 -119.834623 357 17ft 0kts
04-Oct-17 20:34 34.427028 -119.834623 357 17ft 0kts
04-Oct-17 20:35 34.427904 -119.835070 263 17ft 0kts
04-Oct-17 20:36 34.426611 -119.863235 267 285ft 132kts
04-Oct-17 20:37 34.421753 -119.907891 263 1704ft 135kts
04-Oct-17 20:38 34.417089 -119.954020 265 3111ft 141kts
04-Oct-17 20:39 34.413037 -120.001134 267 4543ft 142kts
04-Oct-17 20:40 34.429033 -120.035194 20 5677ft 145kts
04-Oct-17 20:41 34.444372 -119.992809 75 6934ft 150kts
04-Oct-17 20:42 34.457584 -119.943779 67 7996ft 159kts
04-Oct-17 20:43 34.474653 -119.887291 69 7963ft 184kts
04-Oct-17 20:44 34.489857 -119.829981 70 8083ft 174kts
04-Oct-17 20:45 34.503997 -119.774069 67 8580ft 172kts
04-Oct-17 20:46 34.541617 -119.738945 29 8992ft 183kts
04-Oct-17 20:47 34.586137 -119.711785 23 9000ft 182kts
04-Oct-17 20:48 34.631779 -119.686459 29 8980ft 179kts
04-Oct-17 20:49 34.675480 -119.658319 29 8973ft 179kts
04-Oct-17 20:50 34.717684 -119.626641 31 9011ft 176kts
04-Oct-17 20:51 34.760404 -119.597117 30 8974ft 179kts
04-Oct-17 20:52 34.804029 -119.568558 28 9006ft 176kts
04-Oct-17 20:53 34.846059 -119.538244 34 9030ft 178kts
04-Oct-17 20:54 34.880681 -119.511339 29 9034ft 178kts
04-Oct-17 20:55 34.932329 -119.480343 23 9040ft 178kts
04-Oct-17 20:56 34.976344 -119.451753 30 8957ft 180kts
04-Oct-17 20:57 35.012635 -119.426966 28 8943ft 179kts
04-Oct-17 20:58 35.062282 -119.391500 29 8960ft 178kts
04-Oct-17 20:59 35.105037 -119.363190 29 9002ft 178kts
04-Oct-17 21:00 35.125610 -119.322730 71 8642ft 172kts
04-Oct-17 21:01 35.135885 -119.266033 79 7764ft 169kts
04-Oct-17 21:02 35.144459 -119.210864 73 7073ft 161kts
04-Oct-17 21:03 35.154716 -119.157224 75 6196ft 159kts
04-Oct-17 21:04 35.165470 -119.104629 68 5380ft 155kts
04-Oct-17 21:05 35.188853 -119.062610 54 4605ft 146kts
04-Oct-17 21:06 35.213146 -119.022659 53 3736ft 146kts
04-Oct-17 21:07 35.236349 -118.983689 53 3027ft 138kts
04-Oct-17 21:08 35.259354 -118.947355 52 2516ft 122kts
04-Oct-17 21:09 35.285069 -118.925951 341 2514ft 129kts
04-Oct-17 21:10 35.317386 -118.941769 339 2518ft 122kts
04-Oct-17 21:11 35.348815 -118.955309 328 2507ft 127kts
04-Oct-17 21:12 35.374311 -118.984864 319 2071ft 125kts
04-Oct-17 21:13 35.399157 -119.015070 322 1410ft 124kts
04-Oct-17 21:14 35.423786 -119.044092 321 729ft 115kts
04-Oct-17 21:15 35.439031 -119.062377 330 510ft 23kts
04-Oct-17 21:16 35.440505 -119.062489 69 510ft 0kts
04-Oct-17 21:17 35.440505 -119.062489 69 510ft 0kts
04-Oct-17 21:18 35.440157 -119.061611 130 510ft 15kts
04-Oct-17 21:19 35.436885 -119.057587 130 510ft 19kts
04-Oct-17 21:20 35.432671 -119.052582 128 510ft 20kts
04-Oct-17 21:21 35.428966 -119.048037 136 510ft 12kts
04-Oct-17 21:22 35.428885 -119.045528 309 510ft 6kts
04-Oct-17 21:23 35.428894 -119.045545 299 510ft 0kts
04-Oct-17 21:24 35.428894 -119.045545 299 510ft 0kts

Navigation Log

Ident Type
Flight plan parsing failed, navigation log unavailable